createdAt,value
2019-04-03T00:01:24.150Z,4.37
2019-04-03T00:03:53.466Z,4.83
2019-04-03T00:06:22.761Z,4.67
2019-04-03T00:08:52.891Z,4.97
2019-04-03T00:11:22.752Z,4.30
2019-04-03T00:13:53.812Z,4.47
2019-04-03T00:16:25.466Z,4.00
2019-04-03T00:18:55.003Z,4.00
2019-04-03T00:21:25.489Z,3.90
2019-04-03T00:23:55.074Z,3.27
2019-04-03T00:26:24.331Z,2.73
2019-04-03T00:28:53.503Z,2.70
2019-04-03T00:31:25.955Z,3.03
2019-04-03T00:33:55.171Z,2.43
2019-04-03T00:36:25.412Z,2.20
2019-04-03T00:38:54.940Z,2.20
2019-04-03T00:41:25.151Z,2.37
2019-04-03T00:43:55.486Z,1.93
2019-04-03T00:46:25.206Z,2.20
2019-04-03T00:48:55.713Z,2.07
2019-04-03T00:51:27.418Z,2.07
2019-04-03T00:53:57.981Z,1.90
2019-04-03T00:56:28.712Z,2.40
2019-04-03T00:58:58.284Z,2.10
2019-04-03T01:01:27.674Z,2.30
2019-04-03T01:03:58.869Z,2.80
2019-04-03T01:06:29.075Z,2.60
2019-04-03T01:09:00.113Z,2.90
2019-04-03T01:11:30.634Z,2.80
2019-04-03T01:14:01.600Z,2.93
2019-04-03T01:16:33.050Z,2.70
2019-04-03T01:19:05.186Z,3.07
2019-04-03T01:21:36.533Z,3.03
2019-04-03T01:24:07.660Z,3.07
2019-04-03T01:26:36.369Z,3.40
2019-04-03T01:29:05.627Z,3.50
2019-04-03T01:31:35.233Z,3.03
2019-04-03T01:34:04.931Z,3.57
2019-04-03T01:36:34.209Z,3.73
2019-04-03T01:39:03.699Z,3.43
2019-04-03T01:41:32.977Z,3.93
2019-04-03T01:44:03.482Z,4.33
2019-04-03T01:46:34.446Z,4.20
2019-04-03T01:49:04.102Z,5.23
2019-04-03T01:51:33.945Z,4.63
2019-04-03T01:54:03.706Z,6.30
2019-04-03T01:56:35.658Z,6.47
2019-04-03T01:59:07.195Z,7.00
2019-04-03T02:01:38.644Z,7.47
2019-04-03T02:04:08.519Z,7.77
2019-04-03T02:06:37.771Z,9.47
2019-04-03T02:09:09.473Z,9.37
2019-04-03T02:11:39.133Z,11.33
2019-04-03T02:14:09.072Z,11.43
2019-04-03T02:16:38.610Z,12.77
2019-04-03T02:19:07.883Z,13.47
2019-04-03T02:21:37.425Z,13.90
2019-04-03T02:24:06.895Z,13.97
2019-04-03T02:26:37.317Z,13.13
2019-04-03T02:29:08.808Z,12.30
2019-04-03T02:31:38.334Z,12.70
2019-04-03T02:34:09.806Z,13.10
2019-04-03T02:36:43.385Z,13.07
2019-04-03T02:39:10.858Z,13.43
2019-04-03T02:41:40.722Z,13.07
2019-04-03T02:44:10.026Z,12.33
2019-04-03T02:46:39.221Z,12.77
2019-04-03T02:49:10.117Z,13.60
2019-04-03T02:51:41.105Z,12.07
2019-04-03T02:54:30.122Z,12.50
2019-04-03T02:57:00.982Z,13.73
2019-04-03T02:59:30.900Z,12.60
2019-04-03T03:02:00.411Z,12.70
2019-04-03T03:04:29.713Z,12.87
2019-04-03T03:06:59.112Z,12.73
2019-04-03T03:09:28.557Z,13.20
2019-04-03T03:11:58.672Z,12.40
2019-04-03T03:14:38.142Z,12.27
2019-04-03T03:17:06.491Z,13.03
2019-04-03T03:19:40.184Z,13.27
2019-04-03T03:22:10.713Z,12.13
2019-04-03T03:24:40.941Z,12.50
2019-04-03T03:27:11.300Z,12.70
2019-04-03T03:29:41.835Z,12.60
2019-04-03T03:32:18.885Z,11.33
2019-04-03T03:34:52.954Z,11.33
2019-04-03T03:37:17.386Z,12.10
2019-04-03T03:39:46.060Z,10.47
2019-04-03T03:42:16.342Z,9.93
2019-04-03T03:44:47.030Z,9.33
2019-04-03T03:47:18.250Z,8.30
2019-04-03T03:49:49.748Z,8.90
2019-04-03T03:52:19.860Z,8.90
2019-04-03T03:54:51.257Z,8.57
2019-04-03T03:57:21.322Z,8.07
2019-04-03T03:59:52.873Z,9.50
2019-04-03T04:02:22.582Z,8.73
2019-04-03T04:04:52.432Z,9.03
2019-04-03T04:07:22.360Z,8.17
2019-04-03T04:09:52.693Z,9.00
2019-04-03T04:12:24.894Z,8.00
2019-04-03T04:14:56.887Z,7.67
2019-04-03T04:17:26.038Z,8.70
2019-04-03T04:19:56.431Z,9.33
2019-04-03T04:22:27.690Z,9.53
2019-04-03T04:25:00.615Z,9.47
2019-04-03T04:27:33.087Z,8.90
2019-04-03T04:30:01.820Z,8.33
2019-04-03T04:32:33.793Z,8.30
2019-04-03T04:35:03.639Z,8.70
2019-04-03T04:37:33.630Z,9.00
2019-04-03T04:40:03.361Z,9.03
2019-04-03T04:42:34.815Z,8.87
2019-04-03T04:45:05.004Z,9.23
2019-04-03T04:47:34.724Z,9.17
2019-04-03T04:50:04.934Z,8.60
2019-04-03T04:52:34.622Z,6.90
2019-04-03T04:55:04.405Z,8.93
2019-04-03T04:57:33.772Z,8.47
2019-04-03T05:00:03.315Z,9.17
2019-04-03T05:02:32.654Z,8.80
2019-04-03T05:05:02.248Z,7.70
2019-04-03T05:07:32.180Z,8.17
2019-04-03T05:10:01.827Z,7.87
2019-04-03T05:12:31.903Z,8.00
2019-04-03T05:15:01.519Z,8.63
2019-04-03T05:17:31.021Z,8.40
2019-04-03T05:20:00.630Z,10.87
2019-04-03T05:22:30.193Z,10.73
2019-04-03T05:25:00.054Z,11.17
2019-04-03T05:27:29.733Z,11.23
2019-04-03T05:29:59.077Z,12.70
2019-04-03T05:32:28.619Z,12.97
2019-04-03T05:34:58.274Z,12.10
2019-04-03T05:37:28.632Z,14.97
2019-04-03T05:39:58.035Z,14.50
2019-04-03T05:42:29.196Z,12.63
2019-04-03T05:44:59.146Z,12.67
2019-04-03T05:47:28.774Z,12.43
2019-04-03T05:49:58.674Z,13.67
2019-04-03T05:52:28.444Z,14.03
2019-04-03T05:54:57.694Z,14.43
2019-04-03T05:57:28.679Z,14.33
2019-04-03T06:00:01.240Z,13.80
2019-04-03T06:02:30.294Z,12.70
2019-04-03T06:04:59.917Z,13.47
2019-04-03T06:07:29.916Z,13.30
2019-04-03T06:09:59.320Z,12.10
2019-04-03T06:12:29.596Z,12.53
2019-04-03T06:14:58.962Z,11.67
2019-04-03T06:17:28.840Z,12.97
2019-04-03T06:19:59.256Z,10.80
2019-04-03T06:22:29.027Z,11.30
2019-04-03T06:24:59.408Z,11.23
2019-04-03T06:27:29.058Z,10.83
2019-04-03T06:29:59.659Z,11.60
2019-04-03T06:32:29.943Z,12.13
2019-04-03T06:34:59.899Z,11.10
2019-04-03T06:37:30.541Z,10.80
2019-04-03T06:40:03.263Z,10.77
2019-04-03T06:42:33.454Z,10.93
2019-04-03T06:45:02.792Z,10.27
2019-04-03T06:47:32.927Z,9.80
2019-04-03T06:50:03.323Z,10.80
2019-04-03T06:52:32.671Z,10.37
2019-04-03T06:55:03.294Z,9.63
2019-04-03T06:57:33.736Z,8.87
2019-04-03T07:00:04.380Z,8.90
2019-04-03T07:02:34.421Z,9.97
2019-04-03T07:05:03.826Z,9.30
2019-04-03T07:07:35.466Z,9.63
2019-04-03T07:10:04.978Z,9.90
2019-04-03T07:12:35.335Z,9.93
2019-04-03T07:15:05.499Z,9.33
2019-04-03T07:17:35.072Z,8.87
2019-04-03T07:20:13.624Z,8.83
2019-04-03T07:22:36.281Z,8.43
2019-04-03T07:25:07.382Z,9.07
2019-04-03T07:27:37.884Z,7.93
2019-04-03T07:30:08.913Z,8.30
2019-04-03T07:32:38.979Z,8.37
2019-04-03T07:35:10.324Z,8.37
2019-04-03T07:37:40.152Z,9.07
2019-04-03T07:40:10.238Z,9.03
2019-04-03T07:42:39.473Z,9.77
2019-04-03T07:45:10.525Z,8.70
2019-04-03T07:47:40.183Z,8.73
2019-04-03T07:50:10.927Z,8.80
2019-04-03T07:52:41.309Z,9.07
2019-04-03T07:55:10.871Z,9.37
2019-04-03T07:57:41.534Z,8.10
2019-04-03T08:00:11.718Z,8.63
2019-04-03T08:02:47.252Z,9.50
2019-04-03T08:05:13.353Z,10.33
2019-04-03T08:07:43.047Z,11.67
2019-04-03T08:10:13.420Z,10.87
2019-04-03T08:12:43.069Z,11.27
2019-04-03T08:15:13.255Z,11.83
2019-04-03T08:17:43.410Z,12.97
2019-04-03T08:20:13.807Z,13.20
2019-04-03T08:22:43.486Z,13.37
2019-04-03T08:25:12.977Z,12.47
2019-04-03T08:27:42.595Z,12.10
2019-04-03T08:30:13.435Z,11.50
2019-04-03T08:32:42.680Z,10.40
2019-04-03T08:35:20.810Z,10.63
2019-04-03T08:37:44.509Z,10.00
2019-04-03T08:40:14.345Z,7.70
2019-04-03T08:42:43.682Z,8.97
2019-04-03T08:45:13.286Z,7.43
2019-04-03T08:47:46.141Z,7.37
2019-04-03T08:50:14.685Z,7.33
2019-04-03T08:52:44.265Z,6.87
2019-04-03T08:55:14.665Z,7.83
2019-04-03T08:57:46.852Z,6.73
2019-04-03T09:00:16.834Z,7.00
2019-04-03T09:02:46.521Z,6.20
2019-04-03T09:05:19.402Z,6.70
2019-04-03T09:07:51.436Z,6.60
2019-04-03T09:10:21.339Z,6.57
2019-04-03T09:12:51.509Z,6.27
2019-04-03T09:15:20.948Z,7.83
2019-04-03T09:17:50.264Z,7.37
2019-04-03T09:20:20.345Z,9.43
2019-04-03T09:22:52.987Z,9.90
2019-04-03T09:25:22.879Z,11.47
2019-04-03T09:27:52.628Z,13.60
2019-04-03T09:30:23.466Z,14.67
2019-04-03T09:32:53.723Z,14.87
2019-04-03T09:35:25.917Z,15.97
2019-04-03T09:37:55.820Z,13.70
2019-04-03T09:40:25.770Z,12.63
2019-04-03T09:42:55.347Z,11.20
2019-04-03T09:45:26.098Z,10.33
2019-04-03T09:47:56.126Z,9.50
2019-04-03T09:50:25.437Z,9.77
2019-04-03T09:52:55.574Z,9.70
2019-04-03T09:55:25.164Z,9.57
2019-04-03T09:57:54.573Z,8.60
2019-04-03T10:00:24.456Z,9.03
2019-04-03T10:02:54.556Z,8.97
2019-04-03T10:05:24.127Z,8.27
2019-04-03T10:07:53.511Z,8.57
2019-04-03T10:10:25.618Z,8.47
2019-04-03T10:12:54.755Z,9.07
2019-04-03T10:15:24.115Z,9.03
2019-04-03T10:17:53.615Z,8.73
2019-04-03T10:20:23.101Z,9.73
2019-04-03T10:22:54.305Z,8.10
2019-04-03T10:25:26.927Z,6.73
2019-04-03T10:27:56.893Z,4.33
2019-04-03T10:30:27.099Z,4.57
2019-04-03T10:33:04.411Z,3.97
2019-04-03T10:35:33.995Z,4.10
2019-04-03T10:38:03.226Z,4.60
2019-04-03T10:40:33.580Z,4.40
2019-04-03T10:43:04.632Z,4.27
2019-04-03T10:45:34.083Z,3.90
2019-04-03T10:48:03.744Z,3.30
2019-04-03T10:50:33.136Z,3.40
2019-04-03T10:53:02.533Z,3.40
2019-04-03T10:55:32.499Z,3.00
2019-04-03T10:58:02.629Z,3.80
2019-04-03T11:00:32.891Z,2.87
2019-04-03T11:03:03.020Z,3.40
2019-04-03T11:05:32.816Z,3.23
2019-04-03T11:08:03.211Z,3.87
2019-04-03T11:10:33.104Z,3.50
2019-04-03T11:13:03.846Z,4.07
2019-04-03T11:15:33.786Z,3.30
2019-04-03T11:18:03.821Z,4.37
2019-04-03T11:20:36.653Z,3.37
2019-04-03T11:23:07.588Z,3.10
2019-04-03T11:25:41.955Z,2.53
2019-04-03T11:28:13.003Z,3.70
2019-04-03T11:30:42.958Z,3.67
2019-04-03T11:33:13.543Z,3.77
2019-04-03T11:35:43.608Z,3.47
2019-04-03T11:38:20.828Z,3.97
2019-04-03T11:40:45.459Z,3.50
2019-04-03T11:43:15.290Z,3.87
2019-04-03T11:45:44.587Z,3.40
2019-04-03T11:48:14.925Z,3.27
2019-04-03T11:50:46.453Z,3.43
2019-04-03T11:53:16.417Z,2.03
2019-04-03T11:55:46.790Z,2.00
2019-04-03T11:58:18.365Z,1.73
2019-04-03T12:00:50.227Z,1.77
2019-04-03T12:03:19.877Z,2.10
2019-04-03T12:05:49.495Z,2.00
2019-04-03T12:08:19.639Z,2.17
2019-04-03T12:10:48.883Z,2.60
2019-04-03T12:13:21.778Z,2.00
2019-04-03T12:15:53.216Z,1.93
2019-04-03T12:18:22.376Z,2.37
2019-04-03T12:20:52.154Z,2.03
2019-04-03T12:23:24.408Z,2.40
2019-04-03T12:25:54.950Z,2.20
2019-04-03T12:28:24.476Z,2.13
2019-04-03T12:30:53.951Z,2.13
2019-04-03T12:33:23.616Z,2.23
2019-04-03T12:35:53.201Z,2.37
2019-04-03T12:38:23.428Z,2.00
2019-04-03T12:40:54.015Z,2.00
2019-04-03T12:43:26.620Z,2.23
2019-04-03T12:45:57.776Z,1.80
2019-04-03T12:48:28.139Z,2.00
2019-04-03T12:50:59.376Z,1.93
2019-04-03T12:53:30.299Z,2.53
2019-04-03T12:55:59.860Z,2.53
2019-04-03T12:58:29.373Z,2.13
2019-04-03T13:00:59.604Z,2.00
2019-04-03T13:03:29.091Z,1.83
2019-04-03T13:05:59.590Z,1.93
2019-04-03T13:08:29.961Z,1.90
2019-04-03T13:11:02.068Z,2.13
2019-04-03T13:13:33.088Z,2.20
2019-04-03T13:16:03.411Z,1.97
2019-04-03T13:18:33.548Z,2.30
2019-04-03T13:21:03.197Z,2.07
2019-04-03T13:23:32.579Z,2.47
2019-04-03T13:26:02.072Z,2.40
2019-04-03T13:28:31.700Z,2.67
2019-04-03T13:31:03.195Z,2.83
2019-04-03T13:33:37.879Z,2.83
2019-04-03T13:36:06.721Z,2.30
2019-04-03T13:38:36.009Z,2.47
2019-04-03T13:41:05.865Z,2.50
2019-04-03T13:43:35.771Z,2.40
2019-04-03T13:46:05.834Z,2.50
2019-04-03T13:48:35.685Z,2.30
2019-04-03T13:51:06.191Z,2.53
2019-04-03T13:53:36.579Z,2.10
2019-04-03T13:56:10.241Z,2.87
2019-04-03T13:58:38.384Z,3.00
2019-04-03T14:01:09.549Z,2.17
2019-04-03T14:03:39.399Z,2.30
2019-04-03T14:06:09.624Z,2.40
2019-04-03T14:08:39.075Z,2.43
2019-04-03T14:11:09.654Z,2.40
2019-04-03T14:13:39.209Z,2.83
2019-04-03T14:16:18.968Z,2.57
2019-04-03T14:18:40.694Z,2.80
2019-04-03T14:21:11.832Z,2.40
2019-04-03T14:23:41.324Z,2.77
2019-04-03T14:26:14.283Z,3.30
2019-04-03T14:28:42.339Z,3.27
2019-04-03T14:31:12.832Z,3.10
2019-04-03T14:33:45.580Z,3.60
2019-04-03T14:36:13.619Z,3.20
2019-04-03T14:38:46.047Z,3.93
2019-04-03T14:41:17.370Z,4.20
2019-04-03T14:43:47.250Z,3.70
2019-04-03T14:46:17.973Z,4.80
2019-04-03T14:48:48.535Z,4.37
2019-04-03T14:51:18.296Z,4.10
2019-04-03T14:53:47.756Z,3.80
2019-04-03T14:56:17.492Z,4.13
2019-04-03T14:58:47.097Z,4.20
2019-04-03T15:01:19.061Z,5.10
2019-04-03T15:03:49.336Z,5.20
2019-04-03T15:06:18.895Z,5.43
2019-04-03T15:08:48.256Z,5.40
2019-04-03T15:11:20.816Z,5.87
2019-04-03T15:13:50.842Z,5.07
2019-04-03T15:16:21.002Z,5.33
2019-04-03T15:18:50.606Z,5.30
2019-04-03T15:21:20.706Z,5.20
2019-04-03T15:23:51.816Z,5.07
2019-04-03T15:26:22.940Z,4.80
2019-04-03T15:28:53.163Z,4.50
2019-04-03T15:31:24.618Z,4.37
2019-04-03T15:33:55.435Z,5.03
2019-04-03T15:36:25.670Z,4.20
2019-04-03T15:38:58.654Z,4.87
2019-04-03T15:41:33.125Z,4.20
2019-04-03T15:44:01.477Z,4.53
2019-04-03T15:46:33.958Z,4.03
2019-04-03T15:49:02.168Z,3.53
2019-04-03T15:51:32.241Z,3.90
2019-04-03T15:54:02.212Z,3.37
2019-04-03T15:56:32.574Z,3.97
2019-04-03T15:59:02.312Z,3.40
2019-04-03T16:01:32.237Z,3.73
2019-04-03T16:04:01.863Z,3.60
2019-04-03T16:06:31.625Z,3.63
2019-04-03T16:09:02.146Z,3.60
2019-04-03T16:11:31.484Z,4.50
2019-04-03T16:14:01.418Z,4.57
2019-04-03T16:16:30.882Z,3.43
2019-04-03T16:19:00.549Z,2.90
2019-04-03T16:21:34.190Z,3.50
2019-04-03T16:24:04.295Z,3.20
2019-04-03T16:26:33.742Z,2.93
2019-04-03T16:29:04.546Z,3.13
2019-04-03T16:31:34.841Z,2.80
2019-04-03T16:34:06.856Z,2.73
2019-04-03T16:36:35.739Z,2.60
2019-04-03T16:39:07.219Z,2.53
2019-04-03T16:41:38.097Z,2.60
2019-04-03T16:44:11.147Z,2.57
2019-04-03T16:46:41.594Z,2.17
2019-04-03T16:49:16.885Z,2.40
2019-04-03T16:51:46.691Z,2.27
2019-04-03T16:54:16.113Z,2.13
2019-04-03T16:56:45.377Z,1.40
2019-04-03T16:59:15.407Z,1.20
2019-04-03T17:01:46.189Z,1.30
2019-04-03T17:04:25.468Z,1.50
2019-04-03T17:06:49.072Z,1.77
2019-04-03T17:09:19.553Z,1.60
2019-04-03T17:11:49.696Z,1.47
2019-04-03T17:14:23.252Z,1.40
2019-04-03T17:16:50.948Z,1.40
2019-04-03T17:19:20.201Z,1.33
2019-04-03T17:21:49.733Z,1.40
2019-04-03T17:24:19.227Z,1.30
2019-04-03T17:26:53.902Z,1.50
2019-04-03T17:29:22.231Z,1.40
2019-04-03T17:31:57.750Z,1.73
2019-04-03T17:34:25.325Z,1.80
2019-04-03T17:36:54.716Z,1.43
2019-04-03T17:39:24.157Z,1.50
2019-04-03T17:41:53.570Z,2.20
2019-04-03T17:44:23.051Z,1.80
2019-04-03T17:46:52.535Z,2.00
2019-04-03T17:49:24.587Z,2.07
2019-04-03T17:51:53.981Z,2.27
2019-04-03T17:54:38.219Z,2.47
2019-04-03T17:57:09.307Z,1.80
2019-04-03T17:59:38.812Z,2.13
2019-04-03T18:02:14.377Z,2.20
2019-04-03T18:04:48.931Z,2.37
2019-04-03T18:07:28.274Z,2.67
2019-04-03T18:09:57.803Z,2.90
2019-04-03T18:12:27.253Z,3.00
2019-04-03T18:15:18.264Z,2.47
2019-04-03T18:17:48.895Z,2.90
2019-04-03T18:20:20.017Z,2.47
2019-04-03T18:22:51.281Z,2.70
2019-04-03T18:25:20.817Z,3.33
2019-04-03T18:27:56.243Z,3.20
2019-04-03T18:30:26.228Z,3.47
2019-04-03T18:32:56.012Z,2.90
2019-04-03T18:35:26.199Z,3.20
2019-04-03T18:40:32.464Z,2.80
2019-04-03T18:44:21.985Z,3.07
2019-04-03T18:46:50.252Z,3.40
2019-04-03T18:49:27.708Z,3.40
2019-04-03T18:52:07.599Z,3.30
2019-04-03T18:54:43.100Z,4.00
2019-04-03T18:57:23.470Z,3.73
2019-04-03T19:00:00.458Z,3.43
2019-04-03T19:02:38.287Z,3.50
2019-04-03T19:05:10.934Z,3.50
2019-04-03T19:07:40.507Z,3.30
2019-04-03T19:10:12.821Z,2.90
2019-04-03T19:12:43.729Z,2.90
2019-04-03T19:15:13.735Z,3.07
2019-04-03T19:17:43.215Z,2.43
2019-04-03T19:20:18.580Z,2.93
2019-04-03T19:22:48.216Z,2.60
2019-04-03T19:25:20.570Z,2.13
2019-04-03T19:27:50.046Z,2.10
2019-04-03T19:30:21.954Z,3.00
2019-04-03T19:32:51.276Z,2.43
2019-04-03T19:35:21.000Z,3.27
2019-04-03T19:37:55.889Z,2.43
2019-04-03T19:40:27.891Z,2.70
2019-04-03T19:42:57.505Z,3.00
2019-04-03T19:45:27.163Z,2.80
2019-04-03T19:47:56.609Z,2.90
2019-04-03T19:50:26.037Z,3.20
2019-04-03T19:53:19.498Z,2.97
2019-04-03T19:56:14.851Z,3.90
2019-04-03T19:59:34.792Z,3.90
2019-04-03T20:02:09.526Z,3.40
2019-04-03T20:04:39.956Z,3.63
2019-04-03T20:07:11.343Z,3.40
2019-04-03T20:09:40.711Z,3.87
2019-04-03T20:12:18.713Z,4.23
2019-04-03T20:14:58.184Z,3.80
2019-04-03T20:17:19.891Z,4.00
2019-04-03T20:19:52.342Z,3.50
2019-04-03T20:22:30.079Z,3.20
2019-04-03T20:25:01.757Z,3.50
2019-04-03T20:27:31.360Z,2.87
2019-04-03T20:30:01.381Z,3.50
2019-04-03T20:32:31.010Z,3.57
2019-04-03T20:35:00.373Z,3.40
2019-04-03T20:37:32.699Z,3.23
2019-04-03T20:40:02.268Z,3.87
2019-04-03T20:42:31.947Z,3.80
2019-04-03T20:45:01.277Z,3.30
2019-04-03T20:47:31.073Z,4.00
2019-04-03T20:50:02.038Z,3.33
2019-04-03T20:52:31.375Z,3.40
2019-04-03T20:55:00.741Z,3.30
2019-04-03T20:57:33.377Z,3.60
2019-04-03T21:00:03.516Z,3.87
2019-04-03T21:02:33.513Z,3.67
2019-04-03T21:05:03.800Z,4.47
2019-04-03T21:07:33.180Z,4.30
2019-04-03T21:10:02.953Z,4.40
2019-04-03T21:12:33.910Z,4.87
2019-04-03T21:15:08.842Z,4.30
2019-04-03T21:17:34.371Z,4.50
2019-04-03T21:20:04.103Z,4.30
2019-04-03T21:22:33.704Z,4.50
2019-04-03T21:25:05.484Z,4.50
2019-04-03T21:27:34.992Z,4.87
2019-04-03T21:30:04.976Z,5.00
2019-04-03T21:32:34.332Z,5.40
2019-04-03T21:35:04.448Z,6.43
2019-04-03T21:37:34.170Z,5.27
2019-04-03T21:40:05.082Z,6.50
2019-04-03T21:42:34.994Z,6.37
2019-04-03T21:45:07.295Z,6.93
2019-04-03T21:47:36.399Z,6.80
2019-04-03T21:50:07.330Z,6.97
2019-04-03T21:52:37.375Z,7.47
2019-04-03T21:55:10.012Z,7.27
2019-04-03T21:57:39.355Z,7.97
2019-04-03T22:00:13.138Z,7.83
2019-04-03T22:02:45.177Z,8.27
2019-04-03T22:05:14.550Z,7.83
2019-04-03T22:07:44.119Z,8.13
2019-04-03T22:10:13.859Z,9.10
2019-04-03T22:12:43.380Z,8.63
2019-04-03T22:15:14.429Z,9.13
2019-04-03T22:17:44.392Z,9.37
2019-04-03T22:20:13.970Z,8.60
2019-04-03T22:22:44.008Z,9.80
2019-04-03T22:25:13.647Z,9.27
2019-04-03T22:27:43.454Z,10.07
2019-04-03T22:30:13.335Z,9.87
2019-04-03T22:32:43.003Z,10.00
2019-04-03T22:35:13.099Z,9.80
2019-04-03T22:37:42.848Z,9.60
2019-04-03T22:40:12.982Z,10.73
2019-04-03T22:42:45.356Z,10.77
2019-04-03T22:45:14.352Z,10.73
2019-04-03T22:47:44.233Z,11.57
2019-04-03T22:50:13.655Z,11.00
2019-04-03T22:52:43.253Z,10.97
2019-04-03T22:55:14.804Z,11.07
2019-04-03T22:57:44.886Z,10.57
2019-04-03T23:00:14.188Z,12.27
2019-04-03T23:02:44.049Z,10.63
2019-04-03T23:05:17.151Z,11.13
2019-04-03T23:07:51.658Z,11.17
2019-04-03T23:10:20.394Z,11.53
2019-04-03T23:12:50.272Z,11.83
2019-04-03T23:15:19.652Z,11.60
2019-04-03T23:17:49.006Z,11.90
2019-04-03T23:20:20.085Z,11.43
2019-04-03T23:22:50.059Z,12.47
2019-04-03T23:25:19.323Z,11.53
2019-04-03T23:27:49.349Z,10.77
2019-04-03T23:30:19.006Z,10.80
2019-04-03T23:32:48.269Z,12.20
2019-04-03T23:35:21.132Z,12.30
2019-04-03T23:37:51.222Z,12.03
2019-04-03T23:40:20.563Z,13.40
2019-04-03T23:42:49.941Z,12.07
2019-04-03T23:45:21.190Z,12.37
2019-04-03T23:47:51.400Z,11.83
2019-04-03T23:50:22.012Z,12.23
2019-04-03T23:52:52.754Z,12.57
2019-04-03T23:55:22.368Z,12.80
2019-04-03T23:57:51.881Z,12.33
